Time;durP1;ratioP1;P1;durP2;ratioP2;P2;SDS_P1;SDS_P2;PMS_P1;PMS_P2;Temp;Humidity;BMP_temperature;BMP_pressure;BME280_temperature;BME280_humidity;BME280_pressure;Samples;Min_cycle;Max_cycle;Signal;HPM_P1;HPM_P2
2023/07/01 00:01:13;;;;;;;3.67;2.60;;;19.20;99.90;;;;;;4847427;29;20634;-62
2023/07/01 00:03:38;;;;;;;2.50;2.30;;;19.10;99.90;;;;;;4854808;29;20224;-62
2023/07/01 00:06:04;;;;;;;3.40;2.70;;;19.20;99.90;;;;;;4850875;29;20191;-62
2023/07/01 00:08:30;;;;;;;3.80;3.10;;;19.10;99.90;;;;;;4854166;29;20714;-62
2023/07/01 00:11:00;;;;;;;4.30;3.10;;;19.00;99.90;;;;;;4854398;29;20223;-62
2023/07/01 00:13:27;;;;;;;3.55;3.10;;;18.70;99.90;;;;;;4851080;29;20632;-62
2023/07/01 00:15:54;;;;;;;3.55;3.25;;;18.90;99.90;;;;;;4853845;29;20200;-62
2023/07/01 00:18:20;;;;;;;3.25;2.63;;;18.80;99.90;;;;;;4855898;29;20247;-62
2023/07/01 00:20:45;;;;;;;5.03;2.90;;;18.60;99.90;;;;;;4855083;29;20275;-62
2023/07/01 00:23:11;;;;;;;3.60;3.33;;;18.50;99.90;;;;;;4854197;29;20240;-62
2023/07/01 00:25:37;;;;;;;5.53;2.43;;;18.40;99.90;;;;;;4861547;29;20693;-61
2023/07/01 00:28:02;;;;;;;3.90;3.30;;;18.30;99.90;;;;;;4855400;29;20571;-62
2023/07/01 00:30:28;;;;;;;3.47;2.70;;;18.30;99.90;;;;;;4856878;29;20268;-62
2023/07/01 00:32:54;;;;;;;3.33;2.70;;;18.20;99.90;;;;;;4855506;29;20224;-62
2023/07/01 00:35:20;;;;;;;2.90;2.70;;;18.10;99.90;;;;;;4852889;29;20207;-61
2023/07/01 00:37:45;;;;;;;2.90;2.70;;;18.00;99.90;;;;;;4852107;29;20198;-62
2023/07/01 00:40:11;;;;;;;4.00;2.83;;;18.30;99.90;;;;;;4856357;29;20228;-62
2023/07/01 00:42:37;;;;;;;6.57;3.53;;;17.90;99.90;;;;;;4859870;29;20297;-62
2023/07/01 00:45:03;;;;;;;3.17;2.87;;;17.80;99.90;;;;;;4859925;29;20464;-62
2023/07/01 00:47:29;;;;;;;3.85;3.00;;;17.80;99.90;;;;;;4860772;29;20223;-62
2023/07/01 00:49:56;;;;;;;2.67;2.40;;;17.80;99.90;;;;;;4860594;29;20194;-61
2023/07/01 00:52:22;;;;;;;3.95;2.90;;;17.80;99.90;;;;;;4854704;29;20600;-62
2023/07/01 00:54:48;;;;;;;2.67;2.47;;;17.70;99.90;;;;;;4858131;29;20199;-62
2023/07/01 00:57:14;;;;;;;2.83;2.63;;;17.60;99.90;;;;;;4856094;29;20455;-62
2023/07/01 00:59:40;;;;;;;2.90;2.50;;;17.80;99.90;;;;;;4856141;29;20266;-62
2023/07/01 01:02:19;;;;;;;2.90;2.60;;;17.60;99.90;;;;;;4855143;29;20528;-62
2023/07/01 01:05:02;;;;;;;4.18;2.85;;;17.70;99.90;;;;;;4864157;29;20192;-62
2023/07/01 01:07:35;;;;;;;2.90;2.70;;;17.50;99.90;;;;;;4857302;29;20681;-61
2023/07/01 01:10:16;;;;;;;4.38;3.00;;;17.50;99.90;;;;;;4858933;29;20200;-62
2023/07/01 01:12:45;;;;;;;2.85;2.65;;;17.40;99.90;;;;;;4850215;29;20288;-62
2023/07/01 01:15:11;;;;;;;2.75;2.50;;;17.40;99.90;;;;;;4855423;29;20195;-62
2023/07/01 01:17:41;;;;;;;2.85;2.65;;;17.30;99.90;;;;;;4856181;29;20626;-62
2023/07/01 01:20:13;;;;;;;3.00;2.80;;;17.30;99.90;;;;;;4855249;29;20203;-61
2023/07/01 01:23:01;;;;;;;3.30;3.00;;;17.50;99.90;;;;;;4854920;29;20973;-62
2023/07/01 01:25:42;;;;;;;2.83;2.63;;;17.40;99.90;;;;;;4855101;29;20189;-62
2023/07/01 01:28:09;;;;;;;3.00;2.63;;;17.30;99.90;;;;;;4854969;29;20260;-62
2023/07/01 01:30:35;;;;;;;2.78;2.40;;;17.30;99.90;;;;;;4855539;29;20188;-62
2023/07/01 01:33:02;;;;;;;2.97;2.70;;;17.40;99.90;;;;;;4858151;29;20413;-62
2023/07/01 01:35:28;;;;;;;2.70;2.50;;;17.30;99.90;;;;;;4853789;29;21013;-62
2023/07/01 01:38:09;;;;;;;3.30;2.90;;;17.40;99.90;;;;;;4855654;29;20192;-62
2023/07/01 01:40:43;;;;;;;3.33;3.03;;;17.30;99.90;;;;;;4854406;29;20686;-63
2023/07/01 01:43:38;;;;;;;2.92;2.63;;;17.40;99.90;;;;;;4851204;29;20757;-62
2023/07/01 01:46:05;;;;;;;2.95;2.65;;;17.20;99.90;;;;;;4855210;29;20220;-62
2023/07/01 01:48:31;;;;;;;3.10;2.90;;;17.10;99.90;;;;;;4856739;29;20578;-61
2023/07/01 01:50:58;;;;;;;2.97;2.50;;;17.10;99.90;;;;;;4854799;29;20189;-62
2023/07/01 01:53:27;;;;;;;2.80;2.60;;;17.10;99.90;;;;;;4857769;29;20260;-62
2023/07/01 01:55:54;;;;;;;3.78;2.50;;;17.20;99.90;;;;;;4858580;29;20188;-61
2023/07/01 01:58:20;;;;;;;8.98;3.08;;;17.10;99.90;;;;;;4856602;29;20288;-62
2023/07/01 02:00:46;;;;;;;2.90;2.70;;;17.00;99.90;;;;;;4853011;29;20662;-61
2023/07/01 02:03:12;;;;;;;3.92;2.55;;;16.80;99.90;;;;;;4854304;29;20225;-61
2023/07/01 02:05:37;;;;;;;2.90;2.70;;;16.90;99.90;;;;;;4853396;29;20564;-62
2023/07/01 02:08:04;;;;;;;6.87;2.73;;;16.90;99.90;;;;;;4854115;29;20724;-62
2023/07/01 02:10:30;;;;;;;3.13;2.83;;;16.70;99.90;;;;;;4853978;29;20203;-62
2023/07/01 02:12:55;;;;;;;5.22;3.80;;;16.90;99.90;;;;;;4852429;29;20271;-61
2023/07/01 02:15:21;;;;;;;4.07;3.07;;;16.90;99.90;;;;;;4854737;29;20627;-62
2023/07/01 02:17:47;;;;;;;3.80;3.30;;;16.90;99.90;;;;;;4855164;29;20223;-62
2023/07/01 02:20:13;;;;;;;3.30;2.97;;;16.90;99.90;;;;;;4852255;29;21722;-61
2023/07/01 02:22:38;;;;;;;3.47;2.93;;;16.80;99.90;;;;;;4853993;29;20303;-61
2023/07/01 02:25:05;;;;;;;3.27;2.60;;;16.70;99.90;;;;;;4855940;29;20678;-62
2023/07/01 02:27:31;;;;;;;2.80;2.60;;;16.70;99.90;;;;;;4853466;29;20610;-62
2023/07/01 02:29:57;;;;;;;4.05;2.60;;;16.80;99.90;;;;;;4853287;29;20226;-61
2023/07/01 02:32:24;;;;;;;3.25;2.95;;;16.90;99.90;;;;;;4856403;29;20269;-62
2023/07/01 02:34:49;;;;;;;3.70;3.40;;;16.70;99.90;;;;;;4852074;29;20684;-62
2023/07/01 02:37:15;;;;;;;3.50;3.20;;;16.80;99.90;;;;;;4852273;29;20200;-61
2023/07/01 02:39:42;;;;;;;3.00;2.70;;;16.50;99.90;;;;;;4855259;29;20239;-61
2023/07/01 02:42:08;;;;;;;3.40;3.10;;;16.60;99.90;;;;;;4852098;29;20212;-61
2023/07/01 02:44:33;;;;;;;3.70;3.40;;;16.50;99.90;;;;;;4854701;29;20184;-61
2023/07/01 02:47:00;;;;;;;2.90;2.70;;;16.50;99.90;;;;;;4856348;29;20732;-61
2023/07/01 02:49:25;;;;;;;5.70;3.13;;;16.40;99.90;;;;;;4854472;29;20281;-61
2023/07/01 02:51:51;;;;;;;3.30;3.00;;;16.40;99.90;;;;;;4853904;29;20408;-61
2023/07/01 02:54:16;;;;;;;3.10;2.90;;;16.50;99.90;;;;;;4856017;29;20223;-62
2023/07/01 02:56:42;;;;;;;3.40;3.10;;;16.30;99.90;;;;;;4851801;29;20196;-63
2023/07/01 02:59:08;;;;;;;3.03;2.77;;;16.40;99.90;;;;;;4854818;29;20203;-64
2023/07/01 03:01:34;;;;;;;3.20;3.00;;;16.40;99.90;;;;;;4856232;29;20196;-64
2023/07/01 03:03:59;;;;;;;4.23;3.30;;;16.40;99.90;;;;;;4853586;29;20520;-64
2023/07/01 03:06:25;;;;;;;4.30;3.47;;;16.40;99.90;;;;;;4847580;29;20202;-63
2023/07/01 03:08:51;;;;;;;3.37;3.07;;;16.30;99.90;;;;;;4854971;29;20184;-64
2023/07/01 03:11:16;;;;;;;3.60;3.20;;;16.50;99.90;;;;;;4847560;29;20197;-64
2023/07/01 03:13:42;;;;;;;4.20;2.93;;;16.20;99.90;;;;;;4851826;29;20352;-63
2023/07/01 03:16:09;;;;;;;3.28;3.08;;;16.30;99.90;;;;;;4851015;29;20686;-63
2023/07/01 03:18:35;;;;;;;3.42;3.13;;;16.40;99.90;;;;;;4854047;29;20193;-64
2023/07/01 03:21:01;;;;;;;3.60;3.30;;;16.30;99.90;;;;;;4850997;29;20543;-64
2023/07/01 03:23:27;;;;;;;4.10;3.65;;;16.20;99.90;;;;;;4853711;29;20220;-64
2023/07/01 03:25:53;;;;;;;3.60;3.30;;;16.40;99.90;;;;;;4852825;29;20189;-63
2023/07/01 03:28:19;;;;;;;3.60;3.30;;;16.50;99.90;;;;;;4850302;29;20223;-63
2023/07/01 03:30:44;;;;;;;4.83;3.47;;;16.20;99.90;;;;;;4854686;29;20189;-63
2023/07/01 03:33:12;;;;;;;3.80;3.50;;;16.30;99.90;;;;;;4855462;29;20550;-63
2023/07/01 03:35:37;;;;;;;3.45;3.15;;;16.30;99.90;;;;;;4849606;29;20227;-63
2023/07/01 03:38:03;;;;;;;3.90;3.60;;;16.20;99.90;;;;;;4852998;29;20676;-64
2023/07/01 03:40:29;;;;;;;3.45;3.15;;;16.30;99.90;;;;;;4854683;29;20196;-64
2023/07/01 03:42:55;;;;;;;3.50;3.20;;;16.40;99.90;;;;;;4850843;29;20259;-64
2023/07/01 03:45:20;;;;;;;3.80;3.50;;;16.20;99.90;;;;;;4854613;29;20736;-63
2023/07/01 03:47:46;;;;;;;3.20;2.90;;;16.20;99.90;;;;;;4854576;29;20212;-63
2023/07/01 03:50:13;;;;;;;4.50;3.60;;;16.40;99.90;;;;;;4852989;29;20189;-63
2023/07/01 03:52:40;;;;;;;5.78;3.53;;;16.40;99.90;;;;;;4855314;29;20212;-64
2023/07/01 03:55:07;;;;;;;4.35;3.95;;;16.30;99.90;;;;;;4853391;29;20199;-64
2023/07/01 03:57:34;;;;;;;3.65;3.35;;;16.40;99.90;;;;;;4851926;29;20303;-64
2023/07/01 04:00:00;;;;;;;5.88;3.03;;;16.40;99.90;;;;;;4853080;29;20275;-63
2023/07/01 04:02:26;;;;;;;3.78;3.30;;;16.40;99.90;;;;;;4852988;29;20219;-62
2023/07/01 04:04:52;;;;;;;4.30;3.30;;;16.60;99.90;;;;;;4852941;29;20200;-63
2023/07/01 04:07:21;;;;;;;3.87;3.50;;;16.30;99.90;;;;;;4852973;29;20271;-63
2023/07/01 04:09:49;;;;;;;7.00;3.88;;;16.40;99.90;;;;;;4854446;29;20658;-63
2023/07/01 04:12:15;;;;;;;3.65;3.33;;;16.30;99.90;;;;;;4850499;29;20730;-63
2023/07/01 04:14:41;;;;;;;4.07;3.28;;;16.30;99.90;;;;;;4853118;29;20208;-63
2023/07/01 04:17:07;;;;;;;3.80;3.50;;;16.20;99.90;;;;;;4856503;29;20272;-63
2023/07/01 04:19:32;;;;;;;3.53;3.23;;;16.40;99.90;;;;;;4854292;29;20198;-63
2023/07/01 04:21:58;;;;;;;5.63;3.20;;;16.30;99.90;;;;;;4849872;29;20303;-63
2023/07/01 04:24:24;;;;;;;3.33;3.13;;;16.40;99.90;;;;;;4857344;29;20638;-64
2023/07/01 04:26:49;;;;;;;3.27;3.03;;;16.40;99.90;;;;;;4851204;29;20224;-66
2023/07/01 04:29:15;;;;;;;3.80;3.40;;;16.60;99.90;;;;;;4853762;29;20211;-66
2023/07/01 04:31:40;;;;;;;4.07;3.37;;;16.50;99.90;;;;;;4852717;29;20220;-66
2023/07/01 04:34:06;;;;;;;5.27;3.63;;;16.50;99.90;;;;;;4848651;29;20211;-66
2023/07/01 04:36:31;;;;;;;4.23;3.60;;;16.70;99.90;;;;;;4848636;29;20673;-66
2023/07/01 04:38:57;;;;;;;7.03;3.27;;;16.80;99.90;;;;;;4850583;29;20200;-66
2023/07/01 04:41:23;;;;;;;4.53;3.47;;;16.90;99.90;;;;;;4849290;29;20199;-66
2023/07/01 04:43:48;;;;;;;4.40;3.10;;;16.90;99.90;;;;;;4853522;29;20648;-66
2023/07/01 04:46:14;;;;;;;3.63;3.33;;;16.60;99.90;;;;;;4852931;29;20204;-66
2023/07/01 04:48:40;;;;;;;3.90;3.20;;;16.90;99.90;;;;;;4856776;29;20231;-69
2023/07/01 04:51:05;;;;;;;3.15;2.95;;;17.20;99.90;;;;;;4858114;29;20647;-69
2023/07/01 04:53:31;;;;;;;3.70;3.33;;;17.10;99.90;;;;;;4858815;29;20212;-69
2023/07/01 04:55:57;;;;;;;3.37;3.07;;;17.20;99.90;;;;;;4852822;29;20275;-66
2023/07/01 04:58:22;;;;;;;3.43;3.13;;;17.10;99.90;;;;;;4851559;29;20206;-66
2023/07/01 05:00:48;;;;;;;3.67;2.90;;;17.10;99.90;;;;;;4852053;29;20193;-66
2023/07/01 05:03:13;;;;;;;4.17;3.40;;;17.10;99.90;;;;;;4851649;29;20233;-66
2023/07/01 05:05:39;;;;;;;3.50;2.73;;;17.10;99.90;;;;;;4852108;29;20200;-66
2023/07/01 05:08:05;;;;;;;4.07;3.67;;;17.20;99.90;;;;;;4850517;29;20690;-66
2023/07/01 05:10:30;;;;;;;3.90;3.43;;;17.40;99.90;;;;;;4853829;29;20201;-66
2023/07/01 05:12:57;;;;;;;3.63;3.33;;;17.50;99.90;;;;;;4849277;29;20204;-66
2023/07/01 05:15:23;;;;;;;4.07;3.65;;;17.50;99.90;;;;;;4852071;29;20204;-66
2023/07/01 05:17:48;;;;;;;4.70;3.27;;;17.50;99.90;;;;;;4853440;29;20573;-67
2023/07/01 05:20:14;;;;;;;4.70;3.70;;;17.60;99.90;;;;;;4851663;29;20199;-69
2023/07/01 05:22:39;;;;;;;3.70;3.40;;;17.80;99.90;;;;;;4847694;29;20248;-67
2023/07/01 05:25:05;;;;;;;4.10;3.10;;;17.90;99.90;;;;;;4847276;29;20218;-67
2023/07/01 05:27:31;;;;;;;3.67;3.37;;;17.90;99.90;;;;;;4851412;29;20253;-67
2023/07/01 05:29:57;;;;;;;4.00;3.60;;;18.00;99.90;;;;;;4856822;29;20444;-69
2023/07/01 05:32:23;;;;;;;3.20;3.00;;;18.00;99.90;;;;;;4855980;29;20224;-69
2023/07/01 05:34:49;;;;;;;3.35;3.05;;;18.20;99.90;;;;;;4852971;29;20188;-68
2023/07/01 05:37:15;;;;;;;4.20;3.30;;;18.40;99.90;;;;;;4851562;29;20655;-69
2023/07/01 05:39:40;;;;;;;3.97;3.67;;;18.50;99.90;;;;;;4853946;29;20661;-69
2023/07/01 05:42:06;;;;;;;3.70;3.40;;;18.90;99.90;;;;;;4853008;29;20208;-69
2023/07/01 05:44:32;;;;;;;8.90;3.20;;;18.50;99.90;;;;;;4854094;29;20192;-69
2023/07/01 05:46:58;;;;;;;3.43;3.17;;;18.40;99.90;;;;;;4852708;29;20757;-69
2023/07/01 05:49:24;;;;;;;4.88;3.75;;;18.80;99.90;;;;;;4851465;29;20192;-68
2023/07/01 05:51:49;;;;;;;2.97;2.67;;;18.90;99.90;;;;;;4853833;29;20588;-69
2023/07/01 05:54:15;;;;;;;3.53;3.23;;;19.00;99.90;;;;;;4851152;29;20366;-68
2023/07/01 05:56:41;;;;;;;4.63;3.50;;;19.10;99.90;;;;;;4853613;29;20192;-68
2023/07/01 05:59:06;;;;;;;3.30;3.10;;;19.30;99.90;;;;;;4856278;29;20199;-67
2023/07/01 06:01:32;;;;;;;5.27;3.00;;;19.40;99.90;;;;;;4855755;29;20192;-68
2023/07/01 06:03:57;;;;;;;3.67;3.00;;;19.50;99.90;;;;;;4855205;29;20567;-68
2023/07/01 06:06:23;;;;;;;3.27;3.07;;;19.60;99.90;;;;;;4851712;29;20215;-68
2023/07/01 06:08:49;;;;;;;4.73;3.03;;;19.70;99.90;;;;;;4854805;29;20216;-68
2023/07/01 06:11:15;;;;;;;3.23;2.93;;;19.80;99.90;;;;;;4851712;29;20233;-68
2023/07/01 06:13:47;;;;;;;3.40;3.10;;;19.90;99.90;;;;;;4852513;29;20275;-68
2023/07/01 06:16:17;;;;;;;3.28;2.92;;;19.90;99.90;;;;;;4851482;29;20552;-68
2023/07/01 06:18:42;;;;;;;3.17;2.85;;;19.90;99.50;;;;;;4847330;29;20292;-69
2023/07/01 06:21:09;;;;;;;4.00;2.87;;;20.00;99.40;;;;;;4852296;29;20271;-69
2023/07/01 06:23:37;;;;;;;3.33;2.70;;;20.10;98.70;;;;;;4857085;29;20208;-70
2023/07/01 06:26:04;;;;;;;2.55;2.45;;;20.30;98.80;;;;;;4845654;29;20199;-70
2023/07/01 06:28:30;;;;;;;3.58;3.28;;;20.40;99.10;;;;;;4852952;29;20307;-68
2023/07/01 06:30:55;;;;;;;2.70;2.50;;;20.60;97.90;;;;;;4854645;29;20754;-72
2023/07/01 06:33:21;;;;;;;5.10;2.30;;;20.70;97.70;;;;;;4855273;29;20319;-63
2023/07/01 06:35:46;;;;;;;3.50;2.97;;;20.90;96.90;;;;;;4854762;29;20642;-63
2023/07/01 06:38:12;;;;;;;3.50;2.60;;;21.00;96.10;;;;;;4851646;29;20731;-63
2023/07/01 06:40:38;;;;;;;5.13;2.93;;;21.00;95.80;;;;;;4855136;29;20279;-63
2023/07/01 06:43:03;;;;;;;3.13;2.30;;;21.00;95.30;;;;;;4853300;29;20227;-63
2023/07/01 06:45:29;;;;;;;5.30;2.70;;;21.10;95.40;;;;;;4855112;29;20276;-64
2023/07/01 06:47:55;;;;;;;3.75;3.38;;;21.30;94.90;;;;;;4854856;29;20678;-63
2023/07/01 06:50:21;;;;;;;2.77;2.30;;;21.30;94.00;;;;;;4849907;29;20197;-63
2023/07/01 06:52:46;;;;;;;2.60;2.40;;;21.80;93.50;;;;;;4853448;29;20221;-61
2023/07/01 06:55:15;;;;;;;5.33;3.17;;;21.50;93.30;;;;;;4854345;29;20196;-62
2023/07/01 06:57:41;;;;;;;2.80;2.10;;;21.60;92.70;;;;;;4849931;29;20207;-71
2023/07/01 07:00:12;;;;;;;3.50;2.40;;;21.70;92.70;;;;;;4856111;29;20188;-68
2023/07/01 07:02:38;;;;;;;2.55;2.35;;;21.90;92.20;;;;;;4855579;29;20693;-69
2023/07/01 07:05:05;;;;;;;2.40;2.07;;;22.10;90.90;;;;;;4851649;29;20196;-67
2023/07/01 07:07:31;;;;;;;6.40;2.50;;;22.90;90.50;;;;;;4851842;29;20482;-67
2023/07/01 07:09:56;;;;;;;2.03;1.87;;;24.00;87.10;;;;;;4857498;29;20520;-67
2023/07/01 07:12:22;;;;;;;2.30;2.10;;;25.30;83.40;;;;;;4854350;29;21045;-68
2023/07/01 07:14:48;;;;;;;3.67;2.30;;;27.20;75.20;;;;;;4854088;29;20560;-68
2023/07/01 07:17:13;;;;;;;5.97;3.03;;;28.20;68.90;;;;;;4854501;29;20651;-68
2023/07/01 07:19:39;;;;;;;2.77;2.10;;;29.40;63.80;;;;;;4856522;29;20291;-68
2023/07/01 07:22:05;;;;;;;4.40;2.47;;;29.20;59.90;;;;;;4851825;29;20303;-67
2023/07/01 07:24:31;;;;;;;6.00;3.57;;;30.00;58.20;;;;;;4854236;29;20268;-68
2023/07/01 07:27:00;;;;;;;2.53;2.33;;;31.00;55.60;;;;;;4854212;29;20473;-68
2023/07/01 07:29:26;;;;;;;4.20;2.40;;;31.60;52.30;;;;;;4856138;29;20193;-67
2023/07/01 07:31:51;;;;;;;4.07;2.97;;;31.40;51.50;;;;;;4855233;29;21044;-68
2023/07/01 07:34:17;;;;;;;1.90;1.57;;;32.50;49.80;;;;;;4853916;29;20203;-67
2023/07/01 07:36:43;;;;;;;2.47;2.00;;;32.70;49.20;;;;;;4853411;29;20211;-68
2023/07/01 07:39:12;;;;;;;1.93;1.73;;;33.60;47.40;;;;;;4849465;29;20460;-67
2023/07/01 07:41:39;;;;;;;3.63;2.30;;;33.60;45.30;;;;;;4853003;29;20192;-68
2023/07/01 07:44:04;;;;;;;3.10;2.90;;;33.60;45.90;;;;;;4855787;29;20469;-67
2023/07/01 07:46:30;;;;;;;4.00;2.77;;;33.80;45.70;;;;;;4853162;29;20469;-67
2023/07/01 07:48:55;;;;;;;3.70;2.17;;;33.30;45.00;;;;;;4852941;29;20868;-68
2023/07/01 07:51:21;;;;;;;3.60;2.50;;;33.40;45.50;;;;;;4853789;29;20272;-67
2023/07/01 07:53:47;;;;;;;2.60;2.40;;;32.60;45.80;;;;;;4855001;29;20290;-67
2023/07/01 07:56:13;;;;;;;2.73;2.53;;;32.10;46.10;;;;;;4850307;29;20460;-68
2023/07/01 07:58:38;;;;;;;5.27;3.37;;;31.90;46.50;;;;;;4851906;29;20247;-68
2023/07/01 08:01:04;;;;;;;2.50;2.20;;;32.30;45.90;;;;;;4853636;29;20196;-68
2023/07/01 08:03:29;;;;;;;3.03;2.70;;;31.70;47.00;;;;;;4853451;29;22306;-67
2023/07/01 08:05:55;;;;;;;4.13;2.67;;;31.40;46.90;;;;;;4852278;29;20250;-68
2023/07/01 08:08:20;;;;;;;3.10;2.30;;;31.10;48.10;;;;;;4852275;29;20308;-68
2023/07/01 08:10:46;;;;;;;3.37;2.10;;;31.40;48.40;;;;;;4853280;29;20209;-68
2023/07/01 08:13:13;;;;;;;2.60;2.47;;;31.30;48.60;;;;;;4849414;29;20304;-68
2023/07/01 08:15:40;;;;;;;3.10;2.73;;;31.20;49.00;;;;;;4851942;29;20276;-67
2023/07/01 08:18:06;;;;;;;4.00;2.60;;;30.40;50.40;;;;;;4853343;29;20887;-68
2023/07/01 08:20:32;;;;;;;2.87;2.37;;;31.00;49.60;;;;;;4849484;29;20510;-68
2023/07/01 08:22:57;;;;;;;2.67;2.47;;;32.50;48.30;;;;;;4851519;29;20697;-68
2023/07/01 08:25:23;;;;;;;2.77;2.50;;;33.10;47.40;;;;;;4854939;29;20255;-68
2023/07/01 08:27:48;;;;;;;2.80;2.27;;;32.90;46.00;;;;;;4850748;29;20223;-69
2023/07/01 08:30:14;;;;;;;2.70;2.50;;;34.20;44.00;;;;;;4852018;29;20288;-68
2023/07/01 08:32:41;;;;;;;2.63;2.43;;;34.10;43.90;;;;;;4852329;29;20898;-68
2023/07/01 08:35:07;;;;;;;3.40;2.70;;;33.70;42.70;;;;;;4853114;29;20278;-67
2023/07/01 08:37:33;;;;;;;2.97;2.77;;;32.80;44.60;;;;;;4850577;29;20487;-68
2023/07/01 08:39:59;;;;;;;3.03;2.70;;;32.10;45.10;;;;;;4854355;29;20825;-69
2023/07/01 08:42:31;;;;;;;3.07;2.70;;;31.40;46.60;;;;;;4850132;29;20466;-68
2023/07/01 08:44:57;;;;;;;2.40;2.13;;;31.00;47.20;;;;;;4853176;29;20198;-68
2023/07/01 08:47:25;;;;;;;2.83;2.33;;;31.10;47.80;;;;;;4852729;29;20495;-69
2023/07/01 08:49:54;;;;;;;2.93;2.70;;;31.00;48.60;;;;;;4850675;29;20510;-69
2023/07/01 08:52:21;;;;;;;2.90;2.60;;;32.00;47.40;;;;;;4851532;29;20470;-68
2023/07/01 08:54:48;;;;;;;2.90;2.60;;;32.30;47.30;;;;;;4852070;29;20456;-69
2023/07/01 08:57:14;;;;;;;2.90;2.60;;;33.10;46.10;;;;;;4850354;29;20550;-69
2023/07/01 08:59:42;;;;;;;2.90;2.60;;;33.60;44.40;;;;;;4849988;29;22179;-69
2023/07/01 09:02:08;;;;;;;3.43;2.37;;;33.50;43.00;;;;;;4851967;29;20555;-69
2023/07/01 09:04:37;;;;;;;2.57;2.33;;;33.20;42.50;;;;;;4857770;29;20547;-72
2023/07/01 09:07:03;;;;;;;3.60;2.90;;;34.00;42.50;;;;;;4856859;29;20222;-68
2023/07/01 09:09:29;;;;;;;2.63;2.23;;;35.30;41.40;;;;;;4859431;29;20570;-67
2023/07/01 09:11:54;;;;;;;2.70;2.50;;;35.80;39.30;;;;;;4855548;29;20236;-67
2023/07/01 09:14:20;;;;;;;3.30;2.20;;;35.50;39.00;;;;;;4855109;29;20208;-67
2023/07/01 09:16:45;;;;;;;2.70;2.40;;;35.10;38.70;;;;;;4857007;29;20258;-67
2023/07/01 09:19:16;;;;;;;2.90;2.70;;;35.20;39.20;;;;;;4858475;29;20207;-67
2023/07/01 09:21:42;;;;;;;2.43;2.10;;;34.80;38.90;;;;;;4854014;29;20299;-67
2023/07/01 09:24:10;;;;;;;2.60;2.40;;;34.20;38.90;;;;;;4860908;29;20559;-68
2023/07/01 09:26:36;;;;;;;2.87;2.00;;;33.80;39.20;;;;;;4855769;29;20552;-67
2023/07/01 09:29:10;;;;;;;2.60;2.10;;;33.80;39.70;;;;;;4858082;29;20830;-67
2023/07/01 09:31:48;;;;;;;2.40;2.20;;;35.70;36.00;;;;;;4857488;29;20528;-67
2023/07/01 09:34:16;;;;;;;3.40;2.33;;;35.70;35.80;;;;;;4854025;29;20962;-67
2023/07/01 09:36:42;;;;;;;2.10;2.00;;;35.70;35.60;;;;;;4855741;29;20546;-67
2023/07/01 09:39:08;;;;;;;2.07;1.87;;;36.10;34.90;;;;;;4856731;29;20515;-67
2023/07/01 09:41:34;;;;;;;2.00;1.63;;;35.50;34.40;;;;;;4854332;29;20457;-67
2023/07/01 09:44:00;;;;;;;2.00;1.80;;;35.50;34.80;;;;;;4854762;29;20485;-67
2023/07/01 09:46:42;;;;;;;2.53;1.60;;;35.00;35.70;;;;;;4852673;29;20232;-67
2023/07/01 09:49:08;;;;;;;2.40;2.20;;;34.70;35.00;;;;;;4856807;29;20460;-68
2023/07/01 09:51:45;;;;;;;3.50;2.37;;;34.60;34.40;;;;;;4853691;29;20453;-67
2023/07/01 09:54:30;;;;;;;2.20;2.00;;;34.50;35.10;;;;;;4854299;29;20931;-68
2023/07/01 09:56:58;;;;;;;2.80;2.10;;;35.10;34.60;;;;;;4850705;29;20464;-68
2023/07/01 09:59:24;;;;;;;2.57;2.37;;;35.10;34.00;;;;;;4858387;29;20445;-67
2023/07/01 10:01:54;;;;;;;6.13;2.83;;;34.60;34.80;;;;;;4856754;29;21031;-67
2023/07/01 10:04:25;;;;;;;5.50;4.00;;;34.90;33.90;;;;;;4856577;29;20963;-67
2023/07/01 10:06:51;;;;;;;2.40;2.03;;;34.40;35.10;;;;;;4853379;29;20483;-67
2023/07/01 10:09:16;;;;;;;2.57;2.30;;;34.80;34.10;;;;;;4856311;29;23058;-68
2023/07/01 10:11:42;;;;;;;2.40;1.60;;;35.50;32.70;;;;;;4852998;29;20468;-67
2023/07/01 10:14:09;;;;;;;2.30;2.07;;;34.50;33.70;;;;;;4854881;29;20283;-67
2023/07/01 10:16:47;;;;;;;2.37;2.23;;;34.80;32.80;;;;;;4855290;29;20579;-68
2023/07/01 10:19:29;;;;;;;2.57;2.30;;;36.00;32.70;;;;;;4855412;29;20456;-68
2023/07/01 10:22:23;;;;;;;2.87;2.73;;;35.70;32.90;;;;;;4853243;29;20519;-67
2023/07/01 10:24:56;;;;;;;2.50;2.30;;;35.70;32.50;;;;;;4856407;29;20457;-68
2023/07/01 10:27:39;;;;;;;3.80;2.20;;;35.30;33.60;;;;;;4854029;29;20473;-67
2023/07/01 10:30:06;;;;;;;2.30;2.10;;;34.50;33.50;;;;;;4851494;29;20876;-68
2023/07/01 10:32:32;;;;;;;2.17;2.07;;;33.60;34.50;;;;;;4857382;29;20560;-67
2023/07/01 10:35:03;;;;;;;2.30;2.10;;;33.20;35.00;;;;;;4853506;29;20786;-67
2023/07/01 10:37:31;;;;;;;2.60;2.40;;;33.00;35.70;;;;;;4859894;29;20441;-68
2023/07/01 10:39:58;;;;;;;2.67;2.43;;;32.70;34.70;;;;;;4856721;29;20986;-67
2023/07/01 10:42:34;;;;;;;2.30;2.10;;;33.10;35.30;;;;;;4850745;29;20472;-67
2023/07/01 10:45:12;;;;;;;2.90;2.40;;;33.80;35.10;;;;;;4855979;29;20479;-68
2023/07/01 10:47:38;;;;;;;3.03;2.50;;;33.80;34.60;;;;;;4855253;29;20476;-68
2023/07/01 10:50:08;;;;;;;3.33;3.03;;;34.20;35.20;;;;;;4855826;29;20449;-68
2023/07/01 10:52:56;;;;;;;2.47;2.27;;;33.50;36.10;;;;;;4857610;29;20639;-67
2023/07/01 10:55:50;;;;;;;2.37;2.17;;;32.20;35.60;;;;;;4849053;29;21379;-67
2023/07/01 10:58:21;;;;;;;3.50;2.70;;;31.20;37.20;;;;;;4846653;29;20504;-68
2023/07/01 11:00:50;;;;;;;3.60;2.50;;;31.00;37.40;;;;;;4858601;29;20455;-67
2023/07/01 11:03:34;;;;;;;2.90;2.40;;;30.80;38.20;;;;;;4858234;29;20466;-67
2023/07/01 11:06:06;;;;;;;3.07;2.77;;;30.60;38.40;;;;;;4857080;29;20965;-67
2023/07/01 11:08:50;;;;;;;2.93;2.40;;;30.50;39.00;;;;;;4854167;29;20554;-67
2023/07/01 11:11:23;;;;;;;3.50;2.90;;;29.80;39.50;;;;;;4856093;29;20466;-67
2023/07/01 11:14:08;;;;;;;3.70;2.80;;;29.50;40.90;;;;;;4855838;29;20459;-67
2023/07/01 11:16:35;;;;;;;3.40;2.80;;;29.30;42.10;;;;;;4854443;29;20489;-68
2023/07/01 11:19:09;;;;;;;4.70;3.53;;;28.90;42.40;;;;;;4855254;29;20465;-67
2023/07/01 11:21:35;;;;;;;3.07;2.77;;;28.60;41.60;;;;;;4853078;29;20501;-67
2023/07/01 11:24:05;;;;;;;4.50;3.00;;;28.60;42.10;;;;;;4857073;29;20455;-67
2023/07/01 11:26:31;;;;;;;3.47;2.93;;;28.40;42.70;;;;;;4854141;29;20460;-68
2023/07/01 11:28:57;;;;;;;3.03;2.80;;;28.30;43.10;;;;;;4856618;29;20472;-67
2023/07/01 11:31:25;;;;;;;3.50;2.97;;;28.10;43.80;;;;;;4857145;29;20494;-67
2023/07/01 11:33:56;;;;;;;3.47;3.10;;;28.10;44.30;;;;;;4855441;29;20194;-68
2023/07/01 11:36:45;;;;;;;4.07;2.97;;;28.00;44.80;;;;;;4858450;29;20445;-67
2023/07/01 11:39:18;;;;;;;3.10;2.80;;;27.60;44.80;;;;;;4853300;29;21130;-67
2023/07/01 11:41:47;;;;;;;3.13;2.83;;;27.60;45.70;;;;;;4855996;29;20816;-67
2023/07/01 11:44:14;;;;;;;3.30;2.80;;;27.50;45.40;;;;;;4855276;29;20997;-67
2023/07/01 11:46:41;;;;;;;3.03;2.43;;;27.50;45.40;;;;;;4855668;29;20832;-67
2023/07/01 11:49:24;;;;;;;4.70;3.50;;;27.20;45.80;;;;;;4853722;29;20552;-67
2023/07/01 11:52:04;;;;;;;4.43;3.57;;;27.00;46.80;;;;;;4854185;29;20917;-67
2023/07/01 11:54:38;;;;;;;4.73;3.03;;;27.10;47.30;;;;;;4850192;29;20834;-67
2023/07/01 11:57:18;;;;;;;3.30;3.00;;;26.90;46.90;;;;;;4842099;29;20464;-67
2023/07/01 11:59:54;;;;;;;3.00;2.70;;;26.90;47.40;;;;;;4850205;29;20520;-67
2023/07/01 12:02:30;;;;;;;2.50;2.30;;;26.70;47.60;;;;;;4853761;29;20524;-66
2023/07/01 12:04:56;;;;;;;2.80;2.60;;;26.40;47.60;;;;;;4854841;29;20459;-67
2023/07/01 12:07:22;;;;;;;7.40;6.30;;;26.30;47.60;;;;;;4853614;29;20582;-67
2023/07/01 12:09:47;;;;;;;2.93;2.73;;;26.10;48.70;;;;;;4858541;29;20828;-67
2023/07/01 12:12:34;;;;;;;3.00;2.63;;;26.20;49.00;;;;;;4853887;29;20263;-67
2023/07/01 12:15:01;;;;;;;3.97;2.70;;;26.10;49.40;;;;;;4850827;29;20450;-67
2023/07/01 12:17:30;;;;;;;2.87;2.67;;;25.90;50.00;;;;;;4852599;29;20874;-67
2023/07/01 12:19:58;;;;;;;4.83;2.97;;;25.80;51.10;;;;;;4853606;29;20455;-67
2023/07/01 12:22:25;;;;;;;3.03;2.60;;;25.60;51.30;;;;;;4854603;29;20474;-67
2023/07/01 12:24:58;;;;;;;2.73;2.53;;;25.50;51.90;;;;;;4855365;29;20547;-68
2023/07/01 12:27:24;;;;;;;2.87;2.57;;;25.50;52.70;;;;;;4851102;29;20501;-67
2023/07/01 12:29:50;;;;;;;5.87;3.43;;;25.50;52.20;;;;;;4852796;29;20456;-67
2023/07/01 12:32:15;;;;;;;2.50;2.30;;;25.50;53.20;;;;;;4856082;29;20470;-67
2023/07/01 12:34:41;;;;;;;3.57;2.10;;;25.40;52.80;;;;;;4850895;29;20969;-67
2023/07/01 12:37:07;;;;;;;2.90;2.20;;;25.10;53.00;;;;;;4854083;29;20216;-67
2023/07/01 12:39:33;;;;;;;2.53;2.27;;;24.90;53.30;;;;;;4855290;29;20807;-67
2023/07/01 12:41:59;;;;;;;2.80;2.60;;;24.70;53.90;;;;;;4856481;29;20560;-67
2023/07/01 12:44:25;;;;;;;2.73;2.53;;;24.70;54.70;;;;;;4854077;29;20494;-67
2023/07/01 12:46:51;;;;;;;2.37;2.17;;;24.80;55.60;;;;;;4853783;29;20480;-66
2023/07/01 12:49:17;;;;;;;2.53;2.33;;;24.70;55.80;;;;;;4851092;29;20449;-66
2023/07/01 12:51:44;;;;;;;2.10;1.90;;;24.60;56.20;;;;;;4852022;29;20224;-66